createdAt,value
2023-04-16T00:00:07.758Z,41.33
2023-04-16T00:01:07.981Z,43.02
2023-04-16T00:01:59.556Z,41.58
2023-04-16T00:02:51.289Z,42.70
2023-04-16T00:03:44.208Z,42.54
2023-04-16T00:04:36.051Z,42.91
2023-04-16T00:05:27.554Z,40.95
2023-04-16T00:06:23.061Z,42.38
2023-04-16T00:07:14.533Z,41.96
2023-04-16T00:08:06.085Z,41.94
2023-04-16T00:08:58.115Z,41.27
2023-04-16T00:09:50.783Z,41.71
2023-04-16T00:10:42.420Z,41.20
2023-04-16T00:11:33.862Z,42.05
2023-04-16T00:12:25.481Z,39.81
2023-04-16T00:13:19.391Z,41.06
2023-04-16T00:14:13.282Z,40.49
2023-04-16T00:15:06.336Z,41.59
2023-04-16T00:15:59.857Z,42.28
2023-04-16T00:16:51.456Z,42.41
2023-04-16T00:17:43.894Z,41.22
2023-04-16T00:18:37.705Z,39.39
2023-04-16T00:19:31.466Z,40.18
2023-04-16T00:20:22.831Z,39.87
2023-04-16T00:21:14.336Z,38.79
2023-04-16T00:22:05.847Z,38.93
2023-04-16T00:22:57.509Z,36.88
2023-04-16T00:23:48.874Z,38.01
2023-04-16T00:24:40.360Z,37.80
2023-04-16T00:25:31.852Z,38.78
2023-04-16T00:26:23.300Z,38.04
2023-04-16T00:27:17.609Z,38.01
2023-04-16T00:28:10.998Z,36.60
2023-04-16T00:29:02.668Z,37.72
2023-04-16T00:29:54.071Z,36.78
2023-04-16T00:30:45.718Z,36.83
2023-04-16T00:31:37.177Z,38.37
2023-04-16T00:32:28.648Z,38.35
2023-04-16T00:33:22.574Z,38.92
2023-04-16T00:34:14.036Z,39.29
2023-04-16T00:35:06.093Z,38.40
2023-04-16T00:35:57.606Z,37.12
2023-04-16T00:36:49.414Z,36.27
2023-04-16T00:37:40.895Z,37.10
2023-04-16T00:38:32.772Z,39.12
2023-04-16T00:39:24.599Z,37.69
2023-04-16T00:40:16.204Z,37.74
2023-04-16T00:41:09.671Z,38.00
2023-04-16T00:42:01.780Z,38.01
2023-04-16T00:42:54.033Z,38.45
2023-04-16T00:43:45.663Z,39.03
2023-04-16T00:44:37.366Z,38.16
2023-04-16T00:45:29.018Z,37.69
2023-04-16T00:46:23.285Z,37.67
2023-04-16T00:47:15.188Z,38.29
2023-04-16T00:48:06.808Z,38.43
2023-04-16T00:49:01.676Z,36.91
2023-04-16T00:49:54.371Z,36.33
2023-04-16T00:50:45.972Z,36.45
2023-04-16T00:51:37.459Z,35.55
2023-04-16T00:52:29.540Z,35.84
2023-04-16T00:53:21.157Z,37.03
2023-04-16T00:54:12.714Z,36.70
2023-04-16T00:55:07.579Z,35.78
2023-04-16T00:56:02.197Z,33.24
2023-04-16T00:56:53.747Z,32.03
2023-04-16T00:57:45.899Z,31.64
2023-04-16T00:58:37.937Z,33.99
2023-04-16T00:59:29.490Z,34.68
2023-04-16T01:00:21.513Z,33.23
2023-04-16T01:01:14.463Z,33.51
2023-04-16T01:02:06.189Z,34.57
2023-04-16T01:03:00.267Z,36.44
2023-04-16T01:03:51.882Z,35.18
2023-04-16T01:04:43.820Z,35.59
2023-04-16T01:05:36.705Z,34.94
2023-04-16T01:06:28.139Z,34.60
2023-04-16T01:07:20.616Z,34.07
2023-04-16T01:08:17.709Z,34.19
2023-04-16T01:09:11.724Z,33.74
2023-04-16T01:10:04.050Z,33.47
2023-04-16T01:10:55.464Z,34.92
2023-04-16T01:11:46.919Z,35.23
2023-04-16T01:12:38.469Z,36.81
2023-04-16T01:13:30.784Z,34.54
2023-04-16T01:14:22.219Z,35.90
2023-04-16T01:15:14.218Z,37.43
2023-04-16T01:16:07.899Z,37.88
2023-04-16T01:16:59.742Z,36.12
2023-04-16T01:17:51.216Z,37.04
2023-04-16T01:18:42.937Z,36.27
2023-04-16T01:19:38.411Z,37.90
2023-04-16T01:20:29.853Z,36.19
2023-04-16T01:21:21.534Z,36.40
2023-04-16T01:22:13.110Z,38.30
2023-04-16T01:23:04.584Z,39.29
2023-04-16T01:23:57.209Z,37.94
2023-04-16T01:24:48.674Z,36.90
2023-04-16T01:25:40.881Z,36.16
2023-04-16T01:26:33.692Z,36.51
2023-04-16T01:27:25.195Z,37.35
2023-04-16T01:28:17.008Z,37.05
2023-04-16T01:29:11.355Z,39.19
2023-04-16T01:30:03.111Z,37.99
2023-04-16T01:31:07.406Z,37.83
2023-04-16T01:32:26.092Z,39.25
2023-04-16T01:33:19.070Z,39.23
2023-04-16T01:34:10.564Z,38.62
2023-04-16T01:35:01.999Z,38.23
2023-04-16T01:35:53.625Z,37.62
2023-04-16T01:36:45.502Z,37.67
2023-04-16T01:37:36.958Z,38.40
2023-04-16T01:38:28.380Z,37.71
2023-04-16T01:39:19.777Z,37.81
2023-04-16T01:40:11.631Z,38.76
2023-04-16T01:41:03.194Z,38.47
2023-04-16T01:41:54.615Z,39.05
2023-04-16T01:42:46.063Z,39.65
2023-04-16T01:43:40.044Z,39.23
2023-04-16T01:44:31.794Z,38.18
2023-04-16T01:45:26.099Z,37.20
2023-04-16T01:46:36.224Z,38.44
2023-04-16T01:47:27.999Z,39.19
2023-04-16T01:48:19.706Z,39.69
2023-04-16T01:49:11.733Z,40.40
2023-04-16T01:50:04.065Z,42.05
2023-04-16T01:50:55.822Z,39.00
2023-04-16T01:51:48.907Z,39.50
2023-04-16T01:52:40.477Z,40.75
2023-04-16T01:53:32.073Z,40.06
2023-04-16T01:54:23.806Z,38.51
2023-04-16T01:55:15.724Z,40.02
2023-04-16T01:56:07.529Z,40.32
2023-04-16T01:56:59.193Z,41.15
2023-04-16T01:57:50.784Z,41.58
2023-04-16T01:58:42.804Z,43.49
2023-04-16T01:59:34.285Z,42.12
2023-04-16T02:00:25.903Z,39.74
2023-04-16T02:01:18.262Z,40.05
2023-04-16T02:02:12.600Z,41.29
2023-04-16T02:03:04.663Z,42.27
2023-04-16T02:03:57.629Z,44.39
2023-04-16T02:04:49.201Z,42.32
2023-04-16T02:05:43.034Z,41.71
2023-04-16T02:06:34.445Z,42.02
2023-04-16T02:07:27.333Z,43.42
2023-04-16T02:08:18.995Z,41.51
2023-04-16T02:09:11.800Z,40.77
2023-04-16T02:10:06.552Z,41.52
2023-04-16T02:11:00.768Z,41.12
2023-04-16T02:11:52.500Z,42.59
2023-04-16T02:12:44.316Z,42.12
2023-04-16T02:13:36.986Z,42.50
2023-04-16T02:14:30.019Z,45.28
2023-04-16T02:15:21.681Z,42.14
2023-04-16T02:16:13.248Z,43.74
2023-04-16T02:17:12.346Z,42.15
2023-04-16T02:18:06.029Z,42.20
2023-04-16T02:18:57.923Z,39.84
2023-04-16T02:19:53.057Z,40.01
2023-04-16T02:20:47.030Z,40.38
2023-04-16T02:21:39.554Z,40.27
2023-04-16T02:22:31.009Z,38.94
2023-04-16T02:23:22.464Z,37.34
2023-04-16T02:24:13.871Z,37.70
2023-04-16T02:25:08.841Z,37.98
2023-04-16T02:26:01.274Z,35.55
2023-04-16T02:26:54.430Z,37.39
2023-04-16T02:27:46.154Z,35.76
2023-04-16T02:28:48.624Z,37.15
2023-04-16T02:29:41.766Z,36.73
2023-04-16T02:30:39.934Z,36.15
2023-04-16T02:31:32.066Z,36.25
2023-04-16T02:32:23.621Z,34.26
2023-04-16T02:33:16.614Z,33.78
2023-04-16T02:34:18.656Z,33.68
2023-04-16T02:35:12.800Z,34.03
2023-04-16T02:36:04.611Z,31.66
2023-04-16T02:36:58.252Z,32.14
2023-04-16T02:37:49.806Z,31.56
2023-04-16T02:38:41.414Z,32.24
2023-04-16T02:39:33.388Z,33.31
2023-04-16T02:40:25.630Z,33.88
2023-04-16T02:41:17.314Z,33.41
2023-04-16T02:42:08.764Z,33.72
2023-04-16T02:43:01.532Z,33.33
2023-04-16T02:43:53.207Z,31.40
2023-04-16T02:44:44.709Z,30.62
2023-04-16T02:45:36.221Z,32.60
2023-04-16T02:46:28.029Z,32.29
2023-04-16T02:47:19.616Z,31.93
2023-04-16T02:48:11.205Z,32.93
2023-04-16T02:49:02.738Z,31.61
2023-04-16T02:49:54.188Z,31.10
2023-04-16T02:50:48.192Z,30.17
2023-04-16T02:51:39.615Z,31.21
2023-04-16T02:52:32.222Z,33.76
2023-04-16T02:53:23.757Z,33.00
2023-04-16T02:54:15.510Z,32.88
2023-04-16T02:55:07.322Z,34.46
2023-04-16T02:55:58.832Z,32.67
2023-04-16T02:56:52.305Z,32.65
2023-04-16T02:57:43.897Z,33.21
2023-04-16T02:58:35.581Z,33.37
2023-04-16T02:59:28.293Z,32.25
2023-04-16T03:00:19.842Z,31.73
2023-04-16T03:01:11.562Z,31.87
2023-04-16T03:02:03.445Z,32.14
2023-04-16T03:02:55.373Z,33.27
2023-04-16T03:03:47.017Z,33.97
2023-04-16T03:04:38.687Z,32.24
2023-04-16T03:05:30.323Z,32.63
2023-04-16T03:06:21.776Z,32.74
2023-04-16T03:07:13.899Z,33.61
2023-04-16T03:08:08.745Z,34.91
2023-04-16T03:09:00.431Z,33.38
2023-04-16T03:09:51.963Z,35.19
2023-04-16T03:10:43.428Z,32.21
2023-04-16T03:11:34.847Z,32.50
2023-04-16T03:12:26.254Z,34.03
2023-04-16T03:13:17.785Z,33.23
2023-04-16T03:14:09.607Z,34.78
2023-04-16T03:15:01.107Z,35.00
2023-04-16T03:15:52.690Z,35.44
2023-04-16T03:16:44.369Z,33.06
2023-04-16T03:17:35.963Z,33.60
2023-04-16T03:18:27.637Z,36.86
2023-04-16T03:19:19.462Z,36.34
2023-04-16T03:20:11.268Z,36.33
2023-04-16T03:21:06.199Z,35.05
2023-04-16T03:21:57.634Z,34.68
2023-04-16T03:22:49.586Z,34.74
2023-04-16T03:23:41.212Z,35.08
2023-04-16T03:24:33.100Z,35.38
2023-04-16T03:25:24.507Z,36.08
2023-04-16T03:26:16.400Z,35.28
2023-04-16T03:27:07.839Z,34.26
2023-04-16T03:27:59.319Z,35.16
2023-04-16T03:28:50.768Z,33.90
2023-04-16T03:29:42.401Z,33.83
2023-04-16T03:30:36.861Z,32.76
2023-04-16T03:31:28.523Z,32.43
2023-04-16T03:32:20.090Z,34.07
2023-04-16T03:33:11.778Z,33.98
2023-04-16T03:34:04.958Z,34.03
2023-04-16T03:34:57.129Z,34.75
2023-04-16T03:35:57.784Z,36.02
2023-04-16T03:36:53.687Z,34.00
2023-04-16T03:37:45.212Z,34.05
2023-04-16T03:38:36.684Z,35.39
2023-04-16T03:39:28.494Z,35.96
2023-04-16T03:40:20.049Z,36.27
2023-04-16T03:41:11.725Z,34.58
2023-04-16T03:42:03.833Z,35.01
2023-04-16T03:42:55.615Z,35.73
2023-04-16T03:43:47.104Z,36.66
2023-04-16T03:44:38.773Z,36.88
2023-04-16T03:45:30.563Z,37.74
2023-04-16T03:46:23.265Z,38.51
2023-04-16T03:47:16.289Z,37.43
2023-04-16T03:48:11.474Z,37.67
2023-04-16T03:49:03.008Z,38.05
2023-04-16T03:49:54.435Z,38.60
2023-04-16T03:50:48.444Z,38.22
2023-04-16T03:51:41.823Z,40.65
2023-04-16T03:52:33.388Z,39.32
2023-04-16T03:53:25.316Z,40.90
2023-04-16T03:54:16.976Z,41.06
2023-04-16T03:55:14.855Z,42.40
2023-04-16T03:56:06.745Z,43.30
2023-04-16T03:56:58.413Z,42.42
2023-04-16T03:57:50.278Z,43.70
2023-04-16T03:58:42.826Z,42.28
2023-04-16T03:59:34.298Z,43.28
2023-04-16T04:00:26.020Z,45.08
2023-04-16T04:01:27.774Z,45.11
2023-04-16T04:02:20.804Z,43.24
2023-04-16T04:03:13.681Z,44.40
2023-04-16T04:04:07.423Z,43.03
2023-04-16T04:04:59.004Z,42.69
2023-04-16T04:05:50.526Z,42.85
2023-04-16T04:06:48.858Z,43.96
2023-04-16T04:07:40.377Z,43.87
2023-04-16T04:08:31.921Z,43.14
2023-04-16T04:09:23.379Z,43.57
2023-04-16T04:10:15.601Z,43.19
2023-04-16T04:11:07.523Z,42.92
2023-04-16T04:12:00.744Z,43.56
2023-04-16T04:12:53.091Z,44.28
2023-04-16T04:13:46.511Z,43.28
2023-04-16T04:14:39.904Z,42.27
2023-04-16T04:15:32.271Z,41.69
2023-04-16T04:16:23.760Z,43.09
2023-04-16T04:17:16.755Z,44.17
2023-04-16T04:18:08.249Z,42.65
2023-04-16T04:19:10.101Z,41.85
2023-04-16T04:20:02.267Z,41.71
2023-04-16T04:20:55.830Z,43.74
2023-04-16T04:21:51.593Z,43.32
2023-04-16T04:22:43.037Z,41.79
2023-04-16T04:23:36.914Z,42.64
2023-04-16T04:24:29.532Z,42.33
2023-04-16T04:25:22.255Z,44.57
2023-04-16T04:26:13.678Z,42.43
2023-04-16T04:27:07.012Z,42.54
2023-04-16T04:27:58.482Z,43.03
2023-04-16T04:28:49.923Z,43.41
2023-04-16T04:29:42.766Z,43.29
2023-04-16T04:30:35.744Z,41.35
2023-04-16T04:31:27.872Z,43.11
2023-04-16T04:32:20.688Z,43.46
2023-04-16T04:33:14.088Z,43.70
2023-04-16T04:34:06.580Z,43.44
2023-04-16T04:35:00.238Z,41.28
2023-04-16T04:35:52.098Z,40.42
2023-04-16T04:36:47.335Z,40.73
2023-04-16T04:37:39.641Z,41.18
2023-04-16T04:38:38.792Z,42.92
2023-04-16T04:39:31.742Z,42.66
2023-04-16T04:40:23.590Z,40.45
2023-04-16T04:41:17.485Z,40.35
2023-04-16T04:42:09.607Z,41.42
2023-04-16T04:43:03.578Z,40.00
2023-04-16T04:43:55.228Z,38.29
2023-04-16T04:44:47.306Z,40.57
2023-04-16T04:45:39.073Z,40.89
2023-04-16T04:46:30.806Z,41.70
2023-04-16T04:47:22.293Z,41.72
2023-04-16T04:48:13.821Z,40.44
2023-04-16T04:49:05.650Z,40.89
2023-04-16T04:49:57.165Z,40.47
2023-04-16T04:50:48.863Z,41.61
2023-04-16T04:51:42.809Z,41.27
2023-04-16T04:52:35.977Z,40.45
2023-04-16T04:53:27.931Z,38.73
2023-04-16T04:54:19.794Z,39.21
2023-04-16T04:55:11.503Z,38.76
2023-04-16T04:56:12.143Z,39.98
2023-04-16T04:57:04.556Z,38.53
2023-04-16T04:57:56.283Z,40.34
2023-04-16T04:58:50.795Z,38.47
2023-04-16T04:59:44.093Z,38.25
2023-04-16T05:00:37.181Z,37.86
2023-04-16T05:01:28.660Z,40.09
2023-04-16T05:02:20.387Z,40.56
2023-04-16T05:03:12.552Z,38.64
2023-04-16T05:04:04.411Z,37.66
2023-04-16T05:04:56.116Z,39.04
2023-04-16T05:05:47.814Z,37.56
2023-04-16T05:06:39.594Z,38.31
2023-04-16T05:07:31.600Z,36.45
2023-04-16T05:08:23.074Z,37.80
2023-04-16T05:09:14.471Z,38.13
2023-04-16T05:10:06.595Z,37.93
2023-04-16T05:11:00.263Z,38.64
2023-04-16T05:11:52.056Z,38.72
2023-04-16T05:12:43.540Z,37.28
2023-04-16T05:13:34.881Z,39.47
2023-04-16T05:14:26.285Z,39.36
2023-04-16T05:15:17.989Z,39.30
2023-04-16T05:16:09.583Z,39.05
2023-04-16T05:17:03.528Z,38.32
2023-04-16T05:17:56.164Z,38.13
2023-04-16T05:18:49.038Z,38.12
2023-04-16T05:19:40.470Z,40.03
2023-04-16T05:20:32.019Z,39.49
2023-04-16T05:21:24.091Z,37.99
2023-04-16T05:22:18.773Z,39.29
2023-04-16T05:23:10.465Z,38.96
2023-04-16T05:24:02.900Z,41.41
2023-04-16T05:24:54.329Z,39.58
2023-04-16T05:25:48.331Z,37.64
2023-04-16T05:26:39.804Z,39.38
2023-04-16T05:27:31.509Z,39.20
2023-04-16T05:28:22.912Z,38.57
2023-04-16T05:29:14.497Z,38.58
2023-04-16T05:30:06.641Z,37.90
2023-04-16T05:30:58.147Z,38.08
2023-04-16T05:31:51.993Z,40.93
2023-04-16T05:32:43.441Z,39.79
2023-04-16T05:33:35.144Z,39.18
2023-04-16T05:34:26.622Z,38.88
2023-04-16T05:35:18.042Z,38.99
2023-04-16T05:36:09.557Z,40.43
2023-04-16T05:37:01.400Z,40.37
2023-04-16T05:37:55.116Z,39.79
2023-04-16T05:38:46.823Z,39.76
2023-04-16T05:39:38.193Z,39.48
2023-04-16T05:40:29.857Z,39.23
2023-04-16T05:41:21.501Z,39.00
2023-04-16T05:42:12.872Z,40.94
2023-04-16T05:43:04.547Z,39.25
2023-04-16T05:43:58.280Z,38.72
2023-04-16T05:44:50.892Z,39.62
2023-04-16T05:45:44.197Z,40.07
2023-04-16T05:46:35.814Z,40.06
2023-04-16T05:47:27.299Z,39.06
2023-04-16T05:48:20.003Z,39.80
2023-04-16T05:49:11.648Z,40.50
2023-04-16T05:50:03.414Z,39.07
2023-04-16T05:50:54.797Z,39.37
2023-04-16T05:51:46.599Z,38.83
2023-04-16T05:52:38.681Z,41.16
2023-04-16T05:53:30.500Z,42.36
2023-04-16T05:54:23.375Z,41.48
2023-04-16T05:55:14.830Z,39.47
2023-04-16T05:56:06.771Z,39.69
2023-04-16T05:56:58.194Z,40.95
2023-04-16T05:57:49.838Z,39.82
2023-04-16T05:58:41.318Z,38.79
2023-04-16T05:59:33.133Z,38.48
2023-04-16T06:00:25.488Z,39.89
2023-04-16T06:01:18.436Z,39.25
2023-04-16T06:02:10.048Z,40.44
2023-04-16T06:03:02.743Z,40.12
2023-04-16T06:03:54.795Z,42.73
2023-04-16T06:04:46.332Z,42.22
2023-04-16T06:05:37.800Z,39.83
2023-04-16T06:06:29.490Z,41.04
2023-04-16T06:07:20.891Z,39.21
2023-04-16T06:08:12.317Z,38.77
2023-04-16T06:09:06.086Z,39.60
2023-04-16T06:09:57.797Z,37.51
2023-04-16T06:10:49.526Z,38.86
2023-04-16T06:11:41.337Z,38.40
2023-04-16T06:12:32.829Z,38.56
2023-04-16T06:13:24.901Z,37.64
2023-04-16T06:14:16.365Z,38.36
2023-04-16T06:15:08.480Z,38.33
2023-04-16T06:16:01.223Z,37.44
2023-04-16T06:16:52.743Z,40.13
2023-04-16T06:17:44.406Z,37.09
2023-04-16T06:18:36.604Z,37.61
2023-04-16T06:19:27.966Z,38.83
2023-04-16T06:20:19.337Z,37.85
2023-04-16T06:21:10.826Z,36.69
2023-04-16T06:22:02.453Z,39.19
2023-04-16T06:22:56.548Z,37.46
2023-04-16T06:23:48.351Z,37.01
2023-04-16T06:24:40.063Z,37.21
2023-04-16T06:25:31.588Z,36.76
2023-04-16T06:26:23.089Z,36.58
2023-04-16T06:27:14.510Z,35.49
2023-04-16T06:28:05.991Z,35.87
2023-04-16T06:28:57.449Z,34.83
2023-04-16T06:29:49.267Z,35.03
2023-04-16T06:30:42.804Z,35.86
2023-04-16T06:31:36.135Z,34.95
2023-04-16T06:32:27.859Z,35.92
2023-04-16T06:33:19.442Z,35.74
2023-04-16T06:34:10.993Z,36.33
2023-04-16T06:35:04.317Z,36.69
2023-04-16T06:35:58.228Z,36.30
2023-04-16T06:36:49.573Z,34.97
2023-04-16T06:37:41.578Z,34.02
2023-04-16T06:38:32.995Z,34.14
2023-04-16T06:39:24.440Z,35.30
2023-04-16T06:40:18.677Z,33.62
2023-04-16T06:41:10.497Z,32.78
2023-04-16T06:42:02.385Z,32.10
2023-04-16T06:42:54.297Z,30.95
2023-04-16T06:43:48.231Z,32.19
2023-04-16T06:44:39.590Z,33.15
2023-04-16T06:45:31.296Z,32.79
2023-04-16T06:46:22.763Z,33.14
2023-04-16T06:47:14.315Z,32.64
2023-04-16T06:48:05.947Z,32.51
2023-04-16T06:48:57.647Z,32.34
2023-04-16T06:49:49.065Z,31.27
2023-04-16T06:50:44.114Z,31.38
2023-04-16T06:51:35.699Z,30.95
2023-04-16T06:52:27.208Z,31.10
2023-04-16T06:53:18.812Z,31.01
2023-04-16T06:54:10.372Z,31.76
2023-04-16T06:55:02.548Z,30.93
2023-04-16T06:55:56.072Z,29.01
2023-04-16T06:56:47.777Z,30.27
2023-04-16T06:57:40.595Z,29.76
2023-04-16T06:58:33.050Z,30.64
2023-04-16T06:59:24.742Z,30.85
2023-04-16T07:00:16.536Z,30.22
2023-04-16T07:01:08.024Z,29.67
2023-04-16T07:01:59.632Z,29.88
2023-04-16T07:02:51.405Z,29.70
2023-04-16T07:03:43.278Z,29.66
2023-04-16T07:04:34.818Z,28.99
2023-04-16T07:05:28.827Z,28.89
2023-04-16T07:06:20.468Z,28.81
2023-04-16T07:07:12.967Z,28.63
2023-04-16T07:08:04.418Z,27.77
2023-04-16T07:08:55.961Z,28.35
2023-04-16T07:09:47.356Z,27.63
2023-04-16T07:10:38.988Z,27.04
2023-04-16T07:11:30.702Z,27.13
2023-04-16T07:12:23.172Z,26.21
2023-04-16T07:13:27.830Z,25.81
2023-04-16T07:14:30.486Z,26.04
2023-04-16T07:15:25.710Z,25.83
2023-04-16T07:16:21.001Z,25.61
2023-04-16T07:17:15.765Z,25.14
2023-04-16T07:18:07.982Z,25.86
2023-04-16T07:19:03.497Z,25.20
2023-04-16T07:19:55.768Z,25.06
2023-04-16T07:20:50.825Z,25.01
2023-04-16T07:21:43.993Z,25.26
2023-04-16T07:22:40.091Z,25.63
2023-04-16T07:23:36.695Z,25.40
2023-04-16T07:24:33.571Z,25.78
2023-04-16T07:25:29.304Z,25.02
2023-04-16T07:26:23.610Z,24.57
2023-04-16T07:27:26.266Z,25.43
2023-04-16T07:28:18.598Z,24.28
2023-04-16T07:29:16.658Z,24.61
2023-04-16T07:30:09.374Z,24.76
2023-04-16T07:31:02.422Z,25.09
2023-04-16T07:31:54.438Z,24.79
2023-04-16T07:32:51.806Z,25.37
2023-04-16T07:33:44.109Z,24.26
2023-04-16T07:34:38.824Z,23.61
2023-04-16T07:35:41.049Z,24.01
2023-04-16T07:36:38.740Z,23.24
2023-04-16T07:37:34.241Z,24.10
2023-04-16T07:38:32.027Z,23.40
2023-04-16T07:44:00.672Z,24.17
2023-04-16T07:44:55.124Z,24.06
2023-04-16T07:45:50.196Z,23.04
2023-04-16T07:46:47.325Z,23.37
2023-04-16T07:47:43.008Z,23.50
2023-04-16T07:48:34.993Z,23.42
2023-04-16T07:49:27.637Z,23.72
2023-04-16T07:50:22.000Z,23.28
2023-04-16T07:51:16.216Z,22.56
2023-04-16T07:52:10.386Z,22.18
2023-04-16T07:53:05.168Z,22.55
2023-04-16T07:54:07.164Z,22.10
2023-04-16T07:54:59.619Z,22.49
2023-04-16T07:55:51.958Z,22.91
2023-04-16T07:56:44.887Z,22.15
2023-04-16T07:57:40.505Z,22.42
2023-04-16T07:58:32.723Z,23.69
2023-04-16T07:59:24.797Z,23.48
2023-04-16T08:00:19.238Z,23.32
2023-04-16T08:01:31.635Z,24.69
2023-04-16T08:02:45.172Z,23.85
2023-04-16T08:05:20.111Z,23.55
2023-04-16T08:06:16.245Z,23.71
2023-04-16T08:07:08.668Z,25.41
2023-04-16T08:08:04.103Z,25.59
2023-04-16T08:08:56.812Z,24.68
2023-04-16T08:09:55.022Z,24.10
2023-04-16T08:10:46.801Z,25.08
2023-04-16T08:11:41.933Z,24.60
2023-04-16T08:12:33.509Z,24.57
2023-04-16T08:13:24.914Z,24.70
2023-04-16T08:14:17.135Z,25.03
2023-04-16T08:15:11.061Z,25.32
2023-04-16T08:16:02.669Z,25.05
2023-04-16T08:16:54.349Z,25.29
2023-04-16T08:17:45.895Z,25.46
2023-04-16T08:18:39.417Z,24.73
2023-04-16T08:19:31.158Z,24.86
2023-04-16T08:20:27.997Z,25.63
2023-04-16T08:21:19.796Z,25.39
2023-04-16T08:22:14.138Z,25.83
2023-04-16T08:23:06.254Z,26.24
2023-04-16T08:23:58.095Z,26.56
2023-04-16T08:24:53.440Z,25.77
2023-04-16T08:25:48.348Z,25.70
2023-04-16T08:26:40.444Z,26.18
2023-04-16T08:27:32.040Z,25.84
2023-04-16T08:28:25.873Z,26.41
2023-04-16T08:29:17.613Z,25.73
2023-04-16T08:30:09.332Z,26.68
2023-04-16T08:31:00.911Z,25.60
2023-04-16T08:31:54.226Z,26.60
2023-04-16T08:32:48.686Z,26.07
2023-04-16T08:33:42.316Z,24.96
2023-04-16T08:34:34.498Z,25.85
2023-04-16T08:35:27.954Z,26.25
2023-04-16T08:36:22.541Z,25.20
2023-04-16T08:37:14.707Z,26.53
2023-04-16T08:38:07.380Z,25.60
2023-04-16T08:38:59.410Z,26.70
2023-04-16T08:39:50.935Z,26.26
2023-04-16T08:40:43.303Z,26.13
2023-04-16T08:41:38.452Z,25.77
2023-04-16T08:42:41.723Z,24.99
2023-04-16T08:43:37.912Z,25.89
2023-04-16T08:44:37.468Z,25.28
2023-04-16T08:45:31.087Z,25.45
2023-04-16T08:46:26.110Z,25.23
2023-04-16T08:47:19.675Z,24.17
2023-04-16T08:48:14.319Z,24.87
2023-04-16T08:49:08.203Z,25.10
2023-04-16T08:50:00.838Z,25.57
2023-04-16T08:50:54.998Z,25.53
2023-04-16T08:51:52.180Z,24.46
2023-04-16T08:52:52.427Z,24.83
2023-04-16T08:53:53.581Z,25.42
2023-04-16T08:55:06.192Z,24.94
2023-04-16T08:56:02.190Z,25.50
2023-04-16T08:56:55.577Z,24.53
2023-04-16T08:57:58.574Z,24.71
2023-04-16T08:58:51.275Z,24.67
2023-04-16T08:59:47.016Z,24.16
2023-04-16T09:00:41.188Z,24.46
2023-04-16T09:01:33.930Z,23.82
2023-04-16T09:02:29.682Z,23.85
2023-04-16T09:03:22.164Z,24.95
2023-04-16T09:04:15.800Z,24.39
2023-04-16T09:05:09.400Z,24.73
2023-04-16T09:06:04.039Z,24.87
2023-04-16T09:06:57.525Z,25.47
2023-04-16T09:07:48.985Z,24.06
2023-04-16T09:08:43.790Z,24.87
2023-04-16T09:09:37.809Z,25.04
2023-04-16T09:10:29.349Z,25.12
2023-04-16T09:11:21.283Z,24.59
2023-04-16T09:12:13.240Z,24.31
2023-04-16T09:13:04.734Z,24.07
2023-04-16T09:13:57.190Z,23.50
2023-04-16T09:14:49.913Z,24.42
2023-04-16T09:15:42.676Z,24.30
2023-04-16T09:16:34.450Z,24.18
2023-04-16T09:17:28.112Z,24.66
2023-04-16T09:18:26.014Z,25.72
2023-04-16T09:19:17.398Z,24.21
2023-04-16T09:20:11.146Z,24.35
2023-04-16T09:21:05.261Z,23.64
2023-04-16T09:22:01.580Z,23.22
2023-04-16T09:22:53.361Z,22.99
2023-04-16T09:23:45.567Z,23.66
2023-04-16T09:24:38.750Z,23.13
2023-04-16T09:25:37.352Z,23.13
2023-04-16T09:26:29.318Z,23.41
2023-04-16T09:27:25.366Z,24.28
2023-04-16T09:28:43.542Z,23.03
2023-04-16T09:29:37.461Z,24.62
2023-04-16T09:30:28.946Z,24.27
2023-04-16T09:31:20.540Z,24.94
2023-04-16T09:32:13.628Z,23.35
2023-04-16T09:33:22.633Z,24.84
2023-04-16T09:34:14.542Z,25.61
2023-04-16T09:35:06.229Z,25.57
2023-04-16T09:36:02.655Z,24.05
2023-04-16T09:36:54.314Z,23.90
2023-04-16T09:37:56.823Z,23.99
2023-04-16T09:38:50.784Z,24.87
2023-04-16T09:39:56.699Z,25.58
2023-04-16T09:40:48.397Z,24.69
2023-04-16T09:41:40.798Z,25.29
2023-04-16T09:42:41.012Z,24.83
2023-04-16T09:43:32.490Z,25.02
2023-04-16T09:44:35.427Z,23.64
2023-04-16T09:45:32.022Z,25.10
2023-04-16T09:46:44.480Z,26.29
2023-04-16T09:47:41.551Z,25.85
2023-04-16T09:48:34.473Z,25.50
2023-04-16T09:49:26.694Z,25.86
2023-04-16T09:50:20.494Z,26.63
2023-04-16T09:51:12.018Z,26.47
2023-04-16T09:52:19.118Z,25.16
2023-04-16T09:53:10.528Z,25.35
2023-04-16T09:54:05.080Z,24.33
2023-04-16T09:54:56.492Z,26.05
2023-04-16T09:55:48.140Z,25.83
2023-04-16T09:56:42.012Z,25.55
2023-04-16T09:57:36.817Z,26.37
2023-04-16T09:58:29.240Z,25.56
2023-04-16T09:59:22.872Z,25.62
2023-04-16T10:00:19.309Z,26.33
2023-04-16T10:01:12.890Z,25.31
2023-04-16T10:02:14.906Z,25.57
2023-04-16T10:03:07.944Z,25.07
2023-04-16T10:03:59.737Z,24.86
2023-04-16T10:04:55.192Z,24.85
2023-04-16T10:05:46.699Z,25.80
2023-04-16T10:06:38.428Z,25.60
2023-04-16T10:07:33.998Z,25.44
2023-04-16T10:08:25.620Z,25.18
2023-04-16T10:09:19.205Z,25.32
2023-04-16T10:10:11.219Z,25.40
2023-04-16T10:11:02.947Z,24.32
2023-04-16T10:11:54.518Z,24.44
2023-04-16T10:12:46.018Z,25.22
2023-04-16T10:13:37.723Z,25.23
2023-04-16T10:14:29.529Z,24.97
2023-04-16T10:15:22.434Z,24.71
2023-04-16T10:16:16.354Z,24.25
2023-04-16T10:17:09.583Z,24.45
2023-04-16T10:18:03.275Z,23.77
2023-04-16T10:18:56.672Z,24.16
2023-04-16T10:19:48.253Z,23.99
2023-04-16T10:20:42.460Z,24.54
2023-04-16T10:21:34.517Z,24.07
2023-04-16T10:22:26.564Z,23.98
2023-04-16T10:23:21.105Z,23.00
2023-04-16T10:24:17.401Z,23.50
2023-04-16T10:25:10.833Z,24.50
2023-04-16T10:26:02.721Z,24.03
2023-04-16T10:26:55.302Z,23.78
2023-04-16T10:27:48.036Z,23.89
2023-04-16T10:28:40.749Z,24.09
2023-04-16T10:29:34.637Z,24.63
2023-04-16T10:30:27.692Z,24.92
2023-04-16T10:31:20.083Z,24.39
2023-04-16T10:32:12.896Z,23.86
2023-04-16T10:33:08.152Z,23.57
2023-04-16T10:34:00.682Z,24.04
2023-04-16T10:34:52.450Z,23.19
2023-04-16T10:35:48.273Z,22.78
2023-04-16T10:36:55.309Z,22.50
2023-04-16T10:37:47.510Z,23.04
2023-04-16T10:38:47.678Z,23.33
2023-04-16T10:39:39.070Z,24.05
2023-04-16T10:40:30.620Z,23.91
2023-04-16T10:41:22.601Z,24.11
2023-04-16T10:42:14.138Z,23.06
2023-04-16T10:43:06.886Z,23.44
2023-04-16T10:44:09.619Z,23.87
2023-04-16T10:45:01.480Z,23.26
2023-04-16T10:45:53.813Z,23.91
2023-04-16T10:46:51.540Z,24.71
2023-04-16T10:47:43.059Z,23.01
2023-04-16T10:48:48.725Z,24.20
2023-04-16T10:49:42.663Z,24.69
2023-04-16T10:50:35.949Z,24.32
2023-04-16T10:51:33.427Z,23.32
2023-04-16T10:52:25.450Z,25.00
2023-04-16T10:53:23.192Z,24.75
2023-04-16T10:54:14.797Z,24.63
2023-04-16T10:55:07.160Z,24.18
2023-04-16T10:56:05.020Z,23.21
2023-04-16T10:56:59.060Z,25.30
2023-04-16T10:57:50.984Z,23.43
2023-04-16T10:58:42.670Z,24.73
2023-04-16T10:59:36.907Z,24.86
2023-04-16T11:00:28.498Z,24.29
2023-04-16T11:01:31.300Z,23.90
2023-04-16T11:02:29.034Z,23.25
2023-04-16T11:03:21.149Z,24.35
2023-04-16T11:04:22.043Z,23.82
2023-04-16T11:05:14.064Z,25.32
2023-04-16T11:06:14.515Z,25.03
2023-04-16T11:07:07.673Z,24.69
2023-04-16T11:08:14.318Z,25.58
2023-04-16T11:09:05.764Z,24.12
2023-04-16T11:10:02.494Z,24.55
2023-04-16T11:10:58.474Z,24.67
2023-04-16T11:11:53.053Z,24.44
2023-04-16T11:12:47.414Z,24.98
2023-04-16T11:13:43.740Z,24.56
2023-04-16T11:14:38.188Z,22.93
2023-04-16T11:15:31.370Z,22.34
2023-04-16T11:16:25.899Z,22.33
2023-04-16T11:17:19.227Z,22.73
2023-04-16T11:18:10.915Z,22.32
2023-04-16T11:19:04.798Z,23.41
2023-04-16T11:19:56.525Z,23.11
2023-04-16T11:20:48.105Z,23.00
2023-04-16T11:21:39.778Z,22.86
2023-04-16T11:22:31.346Z,22.41
2023-04-16T11:23:22.957Z,23.01
2023-04-16T11:24:14.419Z,23.26
2023-04-16T11:25:06.488Z,23.83
2023-04-16T11:26:00.850Z,24.44
2023-04-16T11:26:52.854Z,25.33
2023-04-16T11:27:44.352Z,24.37
2023-04-16T11:28:35.948Z,23.93
2023-04-16T11:29:27.473Z,23.68
2023-04-16T11:30:33.775Z,25.40
2023-04-16T11:31:27.412Z,24.20
2023-04-16T11:32:24.870Z,23.09